Time;durP1;ratioP1;P1;durP2;ratioP2;P2;SDS_P1;SDS_P2;PMS_P1;PMS_P2;Temp;Humidity;BMP_temperature;BMP_pressure;BME280_temperature;BME280_humidity;BME280_pressure;Samples;Min_cycle;Max_cycle;Signal;HPM_P1;HPM_P2
2023/07/07 00:00:35;;;;;;;;;2.75;2.75;;;;;-143.47;100.00;63865.75;2119464;28;8733;-68
2023/07/07 00:01:36;;;;;;;;;5.00;4.75;;;;;-143.47;100.00;63865.75;2119831;28;8760;-68
2023/07/07 00:02:36;;;;;;;;;4.50;4.00;;;;;-143.47;100.00;63865.75;2119509;28;8729;-68
2023/07/07 00:03:36;;;;;;;;;3.00;3.00;;;;;-143.47;100.00;63865.75;2119963;28;8752;-63
2023/07/07 00:04:37;;;;;;;;;2.50;2.50;;;;;-143.47;100.00;63865.75;2119681;28;8780;-64
2023/07/07 00:05:37;;;;;;;;;2.50;2.50;;;;;-143.47;100.00;63865.75;2119078;28;8751;-63
2023/07/07 00:06:37;;;;;;;;;4.00;4.00;;;;;-143.47;100.00;63865.75;2119216;28;8761;-63
2023/07/07 00:07:38;;;;;;;;;4.50;4.50;;;;;-143.47;100.00;63865.75;2116717;28;8883;-63
2023/07/07 00:08:39;;;;;;;;;4.00;4.00;;;;;-143.47;100.00;63865.75;2111053;28;8717;-65
2023/07/07 00:09:39;;;;;;;;;3.75;3.75;;;;;-143.47;100.00;63865.75;2111055;28;8759;-63
2023/07/07 00:10:42;;;;;;;;;4.25;4.25;;;;;-143.47;100.00;63865.75;2112052;28;8739;-62
2023/07/07 00:11:43;;;;;;;;;4.00;4.00;;;;;-143.47;100.00;63865.75;2118877;28;8750;-66
2023/07/07 00:12:44;;;;;;;;;5.50;5.50;;;;;-143.47;100.00;63865.75;2114028;28;8770;-65
2023/07/07 00:13:45;;;;;;;;;4.00;3.20;;;;;-143.47;100.00;63865.75;2107339;28;8743;-66
2023/07/07 00:14:45;;;;;;;;;3.00;3.00;;;;;-143.47;100.00;63865.75;2093759;28;8767;-65
2023/07/07 00:15:46;;;;;;;;;3.33;3.00;;;;;-143.47;100.00;63865.75;2101344;28;8778;-64
2023/07/07 00:16:47;;;;;;;;;3.60;3.60;;;;;-143.47;100.00;63865.75;2101811;28;8702;-65
2023/07/07 00:17:47;;;;;;;;;2.50;2.25;;;;;-143.47;100.00;63865.75;2107708;28;8791;-65
2023/07/07 00:18:47;;;;;;;;;3.75;3.75;;;;;-143.47;100.00;63865.75;2109940;28;8881;-66
2023/07/07 00:19:47;;;;;;;;;4.00;3.25;;;;;-143.47;100.00;63865.75;2110208;28;8852;-67
2023/07/07 00:20:48;;;;;;;;;5.25;4.00;;;;;-143.47;100.00;63865.75;2119569;28;8839;-67
2023/07/07 00:21:58;;;;;;;;;3.50;3.50;;;;;-143.47;100.00;63865.75;2119606;28;8725;-67
2023/07/07 00:22:58;;;;;;;;;4.00;4.00;;;;;-143.47;100.00;63865.75;2109540;28;9265;-67
2023/07/07 00:23:59;;;;;;;;;3.25;3.25;;;;;-143.47;100.00;63865.75;2109742;28;8831;-67
2023/07/07 00:25:00;;;;;;;;;3.00;3.00;;;;;-143.47;100.00;63865.75;2118966;28;8741;-66
2023/07/07 00:26:05;;;;;;;;;4.00;4.00;;;;;-143.47;100.00;63865.75;2119100;28;8746;-65
2023/07/07 00:27:06;;;;;;;;;4.80;4.80;;;;;-143.47;100.00;63865.75;2115968;28;8725;-65
2023/07/07 00:28:06;;;;;;;;;4.75;4.75;;;;;-143.47;100.00;63865.75;2091544;28;8783;-66
2023/07/07 00:29:07;;;;;;;;;3.25;3.25;;;;;-143.47;100.00;63865.75;2094146;28;8787;-69
2023/07/07 00:30:08;;;;;;;;;3.00;3.00;;;;;-143.47;100.00;63865.75;2112221;28;8755;-68
2023/07/07 00:31:08;;;;;;;;;2.80;2.80;;;;;-143.47;100.00;63865.75;2110065;28;8842;-67
2023/07/07 00:32:09;;;;;;;;;3.50;3.50;;;;;-143.47;100.00;63865.75;2101759;28;8801;-69
2023/07/07 00:33:09;;;;;;;;;4.00;4.00;;;;;-143.47;100.00;63865.75;2101710;28;8760;-69
2023/07/07 00:34:09;;;;;;;;;4.00;4.00;;;;;-143.47;100.00;63865.75;2102539;28;9237;-69
2023/07/07 00:35:09;;;;;;;;;4.00;4.00;;;;;-143.47;100.00;63865.75;2111315;28;8820;-69
2023/07/07 00:36:10;;;;;;;;;3.00;3.00;;;;;-143.47;100.00;63865.75;2110579;28;8760;-69
2023/07/07 00:37:10;;;;;;;;;5.75;4.50;;;;;-143.47;100.00;63865.75;2110722;28;8798;-68
2023/07/07 00:38:10;;;;;;;;;5.00;4.50;;;;;-143.47;100.00;63865.75;2110985;28;8759;-69
2023/07/07 00:39:11;;;;;;;;;4.50;4.50;;;;;-143.47;100.00;63865.75;2110532;28;8783;-68
2023/07/07 00:40:12;;;;;;;;;4.00;4.00;;;;;-143.47;100.00;63865.75;2104594;28;8828;-68
2023/07/07 00:41:14;;;;;;;;;3.20;3.20;;;;;-143.47;100.00;63865.75;2109901;28;8772;-68
2023/07/07 00:42:14;;;;;;;;;4.00;4.00;;;;;-143.47;100.00;63865.75;2110425;28;9419;-70
2023/07/07 00:43:17;;;;;;;;;2.75;2.75;;;;;-143.47;100.00;63865.75;2104567;28;8795;-70
2023/07/07 00:44:17;;;;;;;;;2.80;2.80;;;;;-143.47;100.00;63865.75;2110200;28;8668;-69
2023/07/07 00:45:20;;;;;;;;;4.50;3.00;;;;;-143.47;100.00;63865.75;2119300;28;8784;-70
2023/07/07 00:46:21;;;;;;;;;4.60;4.60;;;;;-143.47;100.00;63865.75;2114651;28;8821;-70
2023/07/07 00:47:21;;;;;;;;;6.00;4.50;;;;;-143.47;100.00;63865.75;2100749;28;8818;-71
2023/07/07 00:48:29;;;;;;;;;4.25;4.25;;;;;-143.47;100.00;63865.75;2098130;28;8758;-71
2023/07/07 00:49:30;;;;;;;;;5.00;4.60;;;;;-143.47;100.00;63865.75;2094101;28;8684;-70
2023/07/07 00:50:36;;;;;;;;;5.00;5.00;;;;;-143.47;100.00;63865.75;2092854;28;8732;-70
2023/07/07 00:51:43;;;;;;;;;4.00;4.00;;;;;-143.47;100.00;63865.75;2092981;28;8732;-71
2023/07/07 00:52:45;;;;;;;;;3.80;3.80;;;;;-143.47;100.00;63865.75;2101364;28;8686;-70
2023/07/07 00:53:48;;;;;;;;;3.60;3.60;;;;;-143.47;100.00;63865.75;2100812;28;8691;-69
2023/07/07 00:54:49;;;;;;;;;6.60;6.60;;;;;-143.47;100.00;63865.75;2100938;28;8887;-69
2023/07/07 00:55:56;;;;;;;;;3.20;2.80;;;;;-143.47;100.00;63865.75;2101112;28;8670;-69
2023/07/07 00:56:57;;;;;;;;;4.40;4.40;;;;;-143.47;100.00;63865.75;2101175;28;8663;-71
2023/07/07 00:58:02;;;;;;;;;2.00;2.00;;;;;-143.47;100.00;63865.75;2100813;28;8769;-69
2023/07/07 00:59:08;;;;;;;;;3.80;3.80;;;;;-143.47;100.00;63865.75;2109472;28;8708;-68
2023/07/07 01:00:12;;;;;;;;;3.20;3.20;;;;;-143.47;100.00;63865.75;2108616;28;8724;-69
2023/07/07 01:01:17;;;;;;;;;3.40;3.40;;;;;-143.47;100.00;63865.75;2101371;28;8803;-69
2023/07/07 01:02:26;;;;;;;;;3.40;2.40;;;;;-143.47;100.00;63865.75;2100591;28;9294;-65
2023/07/07 01:03:34;;;;;;;;;3.00;2.40;;;;;-143.47;100.00;63865.75;2092870;28;8708;-67
2023/07/07 01:04:37;;;;;;;;;4.00;3.00;;;;;-143.47;100.00;63865.75;2090085;28;9332;-67
2023/07/07 01:05:40;;;;;;;;;2.50;2.50;;;;;-143.47;100.00;63865.75;2092778;28;8890;-67
2023/07/07 01:06:43;;;;;;;;;5.60;4.00;;;;;-143.47;100.00;63865.75;2100910;28;8709;-67
2023/07/07 01:07:51;;;;;;;;;4.00;4.00;;;;;-143.47;100.00;63865.75;2100857;28;8757;-68
2023/07/07 01:09:01;;;;;;;;;1.60;1.60;;;;;-143.47;100.00;63865.75;2100912;28;8674;-69
2023/07/07 01:10:02;;;;;;;;;3.20;2.80;;;;;-143.47;100.00;63865.75;2101233;28;8702;-69
2023/07/07 01:11:02;;;;;;;;;3.50;3.50;;;;;-143.47;100.00;63865.75;2096158;28;8771;-68
2023/07/07 01:12:03;;;;;;;;;4.25;4.25;;;;;-143.47;100.00;63865.75;2094190;28;8752;-67
2023/07/07 01:13:04;;;;;;;;;4.00;4.00;;;;;-143.47;100.00;63865.75;2093814;28;9229;-68
2023/07/07 01:14:17;;;;;;;;;5.00;5.00;;;;;-143.47;100.00;63865.75;2093698;28;8882;-68
2023/07/07 01:15:22;;;;;;;;;4.40;4.00;;;;;-143.47;100.00;63865.75;2094063;28;8879;-68
2023/07/07 01:16:51;;;;;;;;;6.00;5.00;;;;;-143.47;100.00;63865.75;2102217;28;8743;-68
2023/07/07 01:18:08;;;;;;;;;5.40;4.20;;;;;-143.47;100.00;63865.75;2102552;28;8800;-68
2023/07/07 01:19:28;;;;;;;;;3.00;3.00;;;;;-143.47;100.00;63865.75;2098840;28;8979;-67
2023/07/07 01:20:34;;;;;;;;;4.00;3.80;;;;;-143.47;100.00;63865.75;2113291;28;8727;-68
2023/07/07 01:22:01;;;;;;;;;3.20;3.20;;;;;-143.47;100.00;63865.75;2121175;28;8680;-68
2023/07/07 01:23:29;;;;;;;;;3.40;3.40;;;;;-143.47;100.00;63865.75;2119949;28;8700;-69
2023/07/07 01:24:36;;;;;;;;;3.80;3.80;;;;;-143.47;100.00;63865.75;2120519;28;8676;-68
2023/07/07 01:26:05;;;;;;;;;4.60;4.60;;;;;-143.47;100.00;63865.75;2119837;28;8706;-68
2023/07/07 01:27:29;;;;;;;;;5.20;4.40;;;;;-143.47;100.00;63865.75;2093797;28;8748;-69
2023/07/07 01:28:55;;;;;;;;;5.00;3.40;;;;;-143.47;100.00;63865.75;2093666;28;8750;-68
2023/07/07 01:30:16;;;;;;;;;4.80;4.00;;;;;-143.47;100.00;63865.75;2094202;28;8771;-68
2023/07/07 01:31:21;;;;;;;;;4.60;4.60;;;;;-143.47;100.00;63865.75;2094277;28;8689;-68
2023/07/07 01:32:24;;;;;;;;;3.00;3.00;;;;;-143.47;100.00;63865.75;2087056;28;8833;-68
2023/07/07 01:33:30;;;;;;;;;5.20;4.60;;;;;-143.47;100.00;63865.75;2087833;28;8953;-68
2023/07/07 01:34:30;;;;;;;;;5.00;4.40;;;;;-143.47;100.00;63865.75;2092182;28;8738;-67
2023/07/07 01:35:34;;;;;;;;;3.75;3.75;;;;;-143.47;100.00;63865.75;2088582;28;8779;-68
2023/07/07 01:36:34;;;;;;;;;4.20;4.20;;;;;-143.47;100.00;63865.75;2086824;28;8684;-68
2023/07/07 01:37:35;;;;;;;;;4.00;3.00;;;;;-143.47;100.00;63865.75;2093844;28;8760;-68
2023/07/07 01:38:45;;;;;;;;;4.75;4.75;;;;;-143.47;100.00;63865.75;2093795;28;9280;-69
2023/07/07 01:39:47;;;;;;;;;2.60;2.60;;;;;-143.47;100.00;63865.75;2093835;28;8855;-67
2023/07/07 01:40:54;;;;;;;;;4.80;4.80;;;;;-143.47;100.00;63865.75;2086602;28;8741;-63
2023/07/07 01:41:57;;;;;;;;;7.00;5.20;;;;;-143.47;100.00;63865.75;2085623;28;8724;-66
2023/07/07 01:43:05;;;;;;;;;4.40;3.60;;;;;-143.47;100.00;63865.75;2086107;28;8751;-66
2023/07/07 01:44:18;;;;;;;;;5.00;5.00;;;;;-143.47;100.00;63865.75;2093858;28;8736;-68
2023/07/07 01:45:37;;;;;;;;;4.80;4.80;;;;;-143.47;100.00;63865.75;2093877;28;9416;-63
2023/07/07 01:46:48;;;;;;;;;3.60;3.60;;;;;-143.47;100.00;63865.75;2093869;28;9350;-64
2023/07/07 01:48:03;;;;;;;;;5.00;4.20;;;;;-143.47;100.00;63865.75;2094270;28;8704;-63
2023/07/07 01:49:19;;;;;;;;;6.60;5.80;;;;;-143.47;100.00;63865.75;2093873;28;8685;-66
2023/07/07 01:50:24;;;;;;;;;5.60;5.60;;;;;-143.47;100.00;63865.75;2077291;28;9389;-66
2023/07/07 01:51:28;;;;;;;;;4.40;4.40;;;;;-143.47;100.00;63865.75;2077254;28;8734;-57
2023/07/07 01:52:37;;;;;;;;;4.80;4.80;;;;;-143.47;100.00;63865.75;2077359;28;8848;-64
2023/07/07 01:53:41;;;;;;;;;6.60;5.60;;;;;-143.47;100.00;63865.75;2092751;28;8701;-67
2023/07/07 01:54:46;;;;;;;;;6.20;6.20;;;;;-143.47;100.00;63865.75;2093784;28;8756;-68
2023/07/07 01:55:52;;;;;;;;;6.00;5.60;;;;;-143.47;100.00;63865.75;2094085;28;8739;-66
2023/07/07 01:56:55;;;;;;;;;5.60;5.60;;;;;-143.47;100.00;63865.75;2085302;28;8932;-66
2023/07/07 01:57:59;;;;;;;;;5.00;5.00;;;;;-143.47;100.00;63865.75;2083184;28;8700;-66
2023/07/07 01:59:00;;;;;;;;;5.00;5.00;;;;;-143.47;100.00;63865.75;2085712;28;8908;-65
2023/07/07 02:00:01;;;;;;;;;6.50;4.75;;;;;-143.47;100.00;63865.75;2085563;28;8845;-65
2023/07/07 02:01:02;;;;;;;;;7.75;5.75;;;;;-143.47;100.00;63865.75;2087677;28;11401;-66
2023/07/07 02:02:03;;;;;;;;;4.40;4.40;;;;;-143.47;100.00;63865.75;2093964;28;8673;-66
2023/07/07 02:03:08;;;;;;;;;5.00;5.00;;;;;-143.47;100.00;63865.75;2094326;28;8791;-66
2023/07/07 02:04:08;;;;;;;;;4.00;4.00;;;;;-143.47;100.00;63865.75;2093582;28;8729;-66
2023/07/07 02:05:11;;;;;;;;;6.75;5.75;;;;;-143.47;100.00;63865.75;2113343;28;8745;-67
2023/07/07 02:06:11;;;;;;;;;5.00;4.40;;;;;-143.47;100.00;63865.75;2115000;28;8723;-66
2023/07/07 02:07:12;;;;;;;;;5.00;4.00;;;;;-143.47;100.00;63865.75;2102387;28;8754;-66
2023/07/07 02:08:12;;;;;;;;;3.75;3.75;;;;;-143.47;100.00;63865.75;2110700;28;9330;-66
2023/07/07 02:09:13;;;;;;;;;5.00;5.00;;;;;-143.47;100.00;63865.75;2119787;28;8851;-66
2023/07/07 02:10:13;;;;;;;;;3.75;3.75;;;;;-143.47;100.00;63865.75;2120600;28;8804;-66
2023/07/07 02:11:14;;;;;;;;;5.00;5.00;;;;;-143.47;100.00;63865.75;2114562;28;9215;-66
2023/07/07 02:12:14;;;;;;;;;5.00;5.00;;;;;-143.47;100.00;63865.75;2111660;28;8776;-66
2023/07/07 02:13:14;;;;;;;;;5.50;5.50;;;;;-143.47;100.00;63865.75;2112100;28;8750;-65
2023/07/07 02:14:15;;;;;;;;;4.25;4.25;;;;;-143.47;100.00;63865.75;2114668;28;8908;-66
2023/07/07 02:15:15;;;;;;;;;5.25;4.50;;;;;-143.47;100.00;63865.75;2114441;28;8904;-65
2023/07/07 02:16:16;;;;;;;;;4.00;4.00;;;;;-143.47;100.00;63865.75;2118616;28;8773;-66
2023/07/07 02:17:16;;;;;;;;;3.75;3.75;;;;;-143.47;100.00;63865.75;2119668;28;8802;-66
2023/07/07 02:18:17;;;;;;;;;3.50;3.50;;;;;-143.47;100.00;63865.75;2119906;28;8806;-65
2023/07/07 02:19:17;;;;;;;;;3.80;3.80;;;;;-143.47;100.00;63865.75;2119831;28;8733;-65
2023/07/07 02:20:18;;;;;;;;;6.25;5.25;;;;;-143.47;100.00;63865.75;2116506;28;8725;-66
2023/07/07 02:21:19;;;;;;;;;5.00;5.00;;;;;-143.47;100.00;63865.75;2119783;27;8785;-66
2023/07/07 02:22:19;;;;;;;;;5.00;3.00;;;;;-143.47;100.00;63865.75;2093054;28;8834;-66
2023/07/07 02:23:19;;;;;;;;;6.00;4.00;;;;;-143.47;100.00;63865.75;2093605;28;11511;-66
2023/07/07 02:24:20;;;;;;;;;4.25;3.50;;;;;-143.47;100.00;63865.75;2119582;28;8816;-66
2023/07/07 02:25:20;;;;;;;;;5.50;4.00;;;;;-143.47;100.00;63865.75;2119992;28;8749;-66
2023/07/07 02:26:20;;;;;;;;;4.25;4.25;;;;;-143.47;100.00;63865.75;2119981;28;8753;-66
2023/07/07 02:27:21;;;;;;;;;5.50;5.50;;;;;-143.47;100.00;63865.75;2119809;28;8802;-66
2023/07/07 02:28:21;;;;;;;;;4.00;4.00;;;;;-143.47;100.00;63865.75;2120017;28;8733;-66
2023/07/07 02:29:21;;;;;;;;;4.25;4.25;;;;;-143.47;100.00;63865.75;2119783;28;8789;-66
2023/07/07 02:30:22;;;;;;;;;5.00;5.00;;;;;-143.47;100.00;63865.75;2119916;28;9219;-66
2023/07/07 02:31:24;;;;;;;;;4.75;4.75;;;;;-143.47;100.00;63865.75;2119760;28;8737;-66
2023/07/07 02:32:25;;;;;;;;;7.20;5.20;;;;;-143.47;100.00;63865.75;2119818;28;8725;-66
2023/07/07 02:33:31;;;;;;;;;5.80;4.80;;;;;-143.47;100.00;63865.75;2120079;28;8697;-66
2023/07/07 02:34:31;;;;;;;;;4.50;4.25;;;;;-143.47;100.00;63865.75;2119783;28;8844;-65
2023/07/07 02:35:32;;;;;;;;;4.00;4.00;;;;;-143.47;100.00;63865.75;2119898;28;8804;-65
2023/07/07 02:36:32;;;;;;;;;4.33;4.33;;;;;-143.47;100.00;63865.75;2119720;28;8748;-66
2023/07/07 02:37:33;;;;;;;;;5.00;4.00;;;;;-143.47;100.00;63865.75;2111587;28;8751;-66
2023/07/07 02:38:35;;;;;;;;;4.75;4.75;;;;;-143.47;100.00;63865.75;2113491;28;8674;-66
2023/07/07 02:39:35;;;;;;;;;6.00;6.00;;;;;-143.47;100.00;63865.75;2120195;28;8740;-67
2023/07/07 02:40:35;;;;;;;;;4.00;3.00;;;;;-143.47;100.00;63865.75;2119594;28;8761;-66
2023/07/07 02:41:36;;;;;;;;;4.00;4.00;;;;;-143.47;100.00;63865.75;2117399;28;8750;-66
2023/07/07 02:42:37;;;;;;;;;3.00;3.00;;;;;-143.47;100.00;63865.75;2111367;28;8781;-66
2023/07/07 02:43:37;;;;;;;;;3.00;3.00;;;;;-143.47;100.00;63865.75;2118123;28;8761;-66
2023/07/07 02:44:38;;;;;;;;;4.00;4.00;;;;;-143.47;100.00;63865.75;2119486;28;11500;-66
2023/07/07 02:45:39;;;;;;;;;4.00;4.00;;;;;-143.47;100.00;63865.75;2120032;28;8713;-65
2023/07/07 02:46:39;;;;;;;;;3.67;2.67;;;;;-143.47;100.00;63865.75;2114979;28;8782;-66
2023/07/07 02:47:41;;;;;;;;;6.33;5.00;;;;;-143.47;100.00;63865.75;2111069;28;8739;-66
2023/07/07 02:48:41;;;;;;;;;5.50;5.00;;;;;-143.47;100.00;63865.75;2118764;28;9405;-66
2023/07/07 02:49:41;;;;;;;;;5.67;5.00;;;;;-143.47;100.00;63865.75;2119479;28;8760;-66
2023/07/07 02:50:42;;;;;;;;;3.00;3.00;;;;;-143.47;100.00;63865.75;2119628;28;8737;-66
2023/07/07 02:51:42;;;;;;;;;3.00;3.00;;;;;-143.47;100.00;63865.75;2120393;28;8745;-66
2023/07/07 02:52:42;;;;;;;;;4.00;4.00;;;;;-143.47;100.00;63865.75;2116159;28;8760;-66
2023/07/07 02:53:43;;;;;;;;;4.25;4.25;;;;;-143.47;100.00;63865.75;2119657;28;8741;-66
2023/07/07 02:54:43;;;;;;;;;3.33;3.00;;;;;-143.47;100.00;63865.75;2118658;28;8777;-66
2023/07/07 02:55:45;;;;;;;;;4.75;4.75;;;;;-143.47;100.00;63865.75;2110813;28;9266;-66
2023/07/07 02:56:46;;;;;;;;;4.40;4.20;;;;;-143.47;100.00;63865.75;2110833;28;8708;-67
2023/07/07 02:57:46;;;;;;;;;4.50;4.50;;;;;-143.47;100.00;63865.75;2117989;28;8748;-66
2023/07/07 02:58:46;;;;;;;;;3.33;3.33;;;;;-143.47;100.00;63865.75;2111384;28;8733;-67
2023/07/07 02:59:47;;;;;;;;;4.67;3.67;;;;;-143.47;100.00;63865.75;2111118;28;8767;-66
2023/07/07 03:00:48;;;;;;;;;4.67;3.00;;;;;-143.47;100.00;63865.75;2111123;28;8797;-67
2023/07/07 03:01:48;;;;;;;;;4.00;3.00;;;;;-143.47;100.00;63865.75;2119198;28;8790;-67
2023/07/07 03:02:48;;;;;;;;;4.00;4.00;;;;;-143.47;100.00;63865.75;2119918;28;8773;-66
2023/07/07 03:03:51;;;;;;;;;5.00;4.00;;;;;-143.47;100.00;63865.75;2119369;28;8887;-66
2023/07/07 03:04:51;;;;;;;;;4.75;4.75;;;;;-143.47;100.00;63865.75;2119660;28;8730;-66
2023/07/07 03:05:51;;;;;;;;;5.00;3.50;;;;;-143.47;100.00;63865.75;2119544;28;8737;-66
2023/07/07 03:06:52;;;;;;;;;4.00;4.00;;;;;-143.47;100.00;63865.75;2119489;28;8776;-67
2023/07/07 03:07:52;;;;;;;;;6.00;4.00;;;;;-143.47;100.00;63865.75;2119638;28;8887;-67
2023/07/07 03:08:53;;;;;;;;;3.67;2.67;;;;;-143.47;100.00;63865.75;2119585;28;8774;-66
2023/07/07 03:09:53;;;;;;;;;3.00;3.00;;;;;-143.47;100.00;63865.75;2119453;28;8757;-67
2023/07/07 03:10:53;;;;;;;;;3.33;3.00;;;;;-143.47;100.00;63865.75;2113551;28;8891;-65
2023/07/07 03:11:54;;;;;;;;;8.67;4.67;;;;;-143.47;100.00;63865.75;2110717;28;8804;-66
2023/07/07 03:12:54;;;;;;;;;4.25;3.75;;;;;-143.47;100.00;63865.75;2102419;28;8776;-67
2023/07/07 03:13:54;;;;;;;;;4.33;3.33;;;;;-143.47;100.00;63865.75;2110160;28;8763;-66
2023/07/07 03:14:55;;;;;;;;;4.00;4.00;;;;;-143.47;100.00;63865.75;2119560;28;8775;-67
2023/07/07 03:15:55;;;;;;;;;20.75;19.75;;;;;-143.47;100.00;63865.75;2119391;28;8768;-66
2023/07/07 03:16:57;;;;;;;;;17.00;16.00;;;;;-143.47;100.00;63865.75;2119990;28;8694;-67
2023/07/07 03:17:57;;;;;;;;;29.40;28.00;;;;;-143.47;100.00;63865.75;2119398;28;9337;-67
2023/07/07 03:19:00;;;;;;;;;25.75;24.25;;;;;-143.47;100.00;63865.75;2120102;28;8776;-67
2023/07/07 03:20:01;;;;;;;;;13.40;13.40;;;;;-143.47;100.00;63865.75;2118889;28;8839;-66
2023/07/07 03:21:01;;;;;;;;;9.00;8.50;;;;;-143.47;100.00;63865.75;2119605;28;8741;-66
2023/07/07 03:22:02;;;;;;;;;7.75;6.25;;;;;-143.47;100.00;63865.75;2119306;28;8744;-67
2023/07/07 03:23:03;;;;;;;;;5.67;5.67;;;;;-143.47;100.00;63865.75;2119592;28;8886;-66
2023/07/07 03:24:04;;;;;;;;;6.40;6.00;;;;;-143.47;100.00;63865.75;2119740;28;8795;-67
2023/07/07 03:25:04;;;;;;;;;6.25;6.25;;;;;-143.47;100.00;63865.75;2119894;28;8884;-67
2023/07/07 03:26:07;;;;;;;;;6.00;6.00;;;;;-143.47;100.00;63865.75;2109684;28;8765;-66
2023/07/07 03:27:07;;;;;;;;;7.00;7.00;;;;;-143.47;100.00;63865.75;2114956;28;8799;-66
2023/07/07 03:28:08;;;;;;;;;6.67;6.67;;;;;-143.47;100.00;63865.75;2110343;28;8820;-66
2023/07/07 03:29:08;;;;;;;;;6.25;5.00;;;;;-143.47;100.00;63865.75;2110493;28;8787;-66
2023/07/07 03:30:09;;;;;;;;;4.00;4.00;;;;;-143.47;100.00;63865.75;2119691;28;8725;-67
2023/07/07 03:31:10;;;;;;;;;7.67;6.00;;;;;-143.47;100.00;63865.75;2119513;28;8759;-66
2023/07/07 03:32:11;;;;;;;;;6.60;6.60;;;;;-143.47;100.00;63865.75;2114473;28;8720;-67
2023/07/07 03:33:13;;;;;;;;;4.00;4.00;;;;;-143.47;100.00;63865.75;2110453;28;8760;-66
2023/07/07 03:34:13;;;;;;;;;4.75;4.75;;;;;-143.47;100.00;63865.75;2102700;28;8682;-67
2023/07/07 03:35:14;;;;;;;;;7.25;6.25;;;;;-143.47;100.00;63865.75;2109398;28;8808;-67
2023/07/07 03:36:14;;;;;;;;;4.75;4.75;;;;;-143.47;100.00;63865.75;2119596;28;8745;-67
2023/07/07 03:37:15;;;;;;;;;7.00;5.50;;;;;-143.47;100.00;63865.75;2119264;28;8749;-66
2023/07/07 03:38:15;;;;;;;;;6.50;6.50;;;;;-143.47;100.00;63865.75;2119780;28;8748;-67
2023/07/07 03:39:15;;;;;;;;;8.00;6.75;;;;;-143.47;100.00;63865.75;2119515;28;8764;-67
2023/07/07 03:40:16;;;;;;;;;4.75;4.75;;;;;-143.47;100.00;63865.75;2115422;28;9238;-66
2023/07/07 03:41:22;;;;;;;;;7.00;7.00;;;;;-143.47;100.00;63865.75;2110628;28;8725;-67
2023/07/07 03:42:22;;;;;;;;;6.00;5.60;;;;;-143.47;100.00;63865.75;2091947;28;8693;-67
2023/07/07 03:43:22;;;;;;;;;7.00;7.00;;;;;-143.47;100.00;63865.75;2093253;28;8749;-67
2023/07/07 03:44:23;;;;;;;;;5.50;5.50;;;;;-143.47;100.00;63865.75;2092763;28;9226;-66
2023/07/07 03:45:23;;;;;;;;;5.75;5.75;;;;;-143.47;100.00;63865.75;2085263;28;8810;-65
2023/07/07 03:46:26;;;;;;;;;5.33;5.33;;;;;-143.47;100.00;63865.75;2084729;28;8885;-66
2023/07/07 03:47:26;;;;;;;;;5.00;5.00;;;;;-143.47;100.00;63865.75;2093209;28;9250;-66
2023/07/07 03:48:27;;;;;;;;;7.50;7.50;;;;;-143.47;100.00;63865.75;2093296;28;8792;-66
2023/07/07 03:49:28;;;;;;;;;6.00;5.75;;;;;-143.47;100.00;63865.75;2092510;28;8892;-66
2023/07/07 03:50:28;;;;;;;;;6.50;6.50;;;;;-143.47;100.00;63865.75;2093908;28;8949;-65
2023/07/07 03:51:34;;;;;;;;;6.33;6.33;;;;;-143.47;100.00;63865.75;2093649;28;8846;-66
2023/07/07 03:52:34;;;;;;;;;5.75;5.25;;;;;-143.47;100.00;63865.75;2093260;28;8843;-66
2023/07/07 03:53:35;;;;;;;;;4.67;4.67;;;;;-143.47;100.00;63865.75;2093262;28;8740;-66
2023/07/07 03:54:36;;;;;;;;;6.00;6.00;;;;;-143.47;100.00;63865.75;2093146;28;8720;-66
2023/07/07 03:55:36;;;;;;;;;6.00;6.00;;;;;-143.47;100.00;63865.75;2092846;28;8768;-65
2023/07/07 03:56:37;;;;;;;;;4.67;4.67;;;;;-143.47;100.00;63865.75;2093191;28;8814;-66
2023/07/07 03:57:37;;;;;;;;;4.75;4.25;;;;;-143.47;100.00;63865.75;2093166;28;8713;-66
2023/07/07 03:58:38;;;;;;;;;5.00;5.00;;;;;-143.47;100.00;63865.75;2092982;28;8884;-66
2023/07/07 03:59:39;;;;;;;;;7.00;6.00;;;;;-143.47;100.00;63865.75;2092269;28;8780;-66
2023/07/07 04:00:39;;;;;;;;;5.00;3.75;;;;;-143.47;100.00;63865.75;2093120;28;8712;-66
2023/07/07 04:01:40;;;;;;;;;6.67;6.00;;;;;-143.47;100.00;63865.75;2092550;28;8838;-67
2023/07/07 04:02:40;;;;;;;;;5.67;5.67;;;;;-143.47;100.00;63865.75;2093141;28;8890;-67
2023/07/07 04:03:42;;;;;;;;;8.75;8.00;;;;;-143.47;100.00;63865.75;2092686;28;8772;-67
2023/07/07 04:04:42;;;;;;;;;6.75;6.00;;;;;-143.47;100.00;63865.75;2093330;28;8851;-67
2023/07/07 04:05:48;;;;;;;;;2.00;2.00;;;;;-143.47;100.00;63865.75;2093086;28;8748;-67
2023/07/07 04:06:48;;;;;;;;;6.60;6.00;;;;;-143.47;100.00;63865.75;2093100;28;8733;-67
2023/07/07 04:07:48;;;;;;;;;5.00;4.00;;;;;-143.47;100.00;63865.75;2092730;28;8784;-67
2023/07/07 04:08:48;;;;;;;;;5.25;5.25;;;;;-143.47;100.00;63865.75;2093496;28;8753;-67
2023/07/07 04:09:51;;;;;;;;;7.67;6.00;;;;;-143.47;100.00;63865.75;2093114;28;8899;-67
2023/07/07 04:11:07;;;;;;;;;6.50;6.00;;;;;-143.47;100.00;63865.75;2093179;28;8694;-67
2023/07/07 04:12:08;;;;;;;;;6.60;6.00;;;;;-143.47;100.00;63865.75;2093094;28;8787;-66
2023/07/07 04:13:09;;;;;;;;;6.75;6.75;;;;;-143.47;100.00;63865.75;2093245;28;8719;-67
2023/07/07 04:14:09;;;;;;;;;6.00;6.00;;;;;-143.47;100.00;63865.75;2105677;28;8752;-66
2023/07/07 04:15:10;;;;;;;;;7.75;6.00;;;;;-143.47;100.00;63865.75;2114400;28;8739;-67
2023/07/07 04:16:13;;;;;;;;;4.33;4.33;;;;;-143.47;100.00;63865.75;2116902;28;8745;-67
2023/07/07 04:17:14;;;;;;;;;5.60;5.00;;;;;-143.47;100.00;63865.75;2115189;28;8812;-67
2023/07/07 04:18:15;;;;;;;;;6.00;6.00;;;;;-143.47;100.00;63865.75;2119030;28;8729;-67
2023/07/07 04:19:15;;;;;;;;;6.60;6.60;;;;;-143.47;100.00;63865.75;2119483;28;8665;-66
2023/07/07 04:20:16;;;;;;;;;6.67;5.00;;;;;-143.47;100.00;63865.75;2110015;28;8747;-67
2023/07/07 04:21:20;;;;;;;;;9.25;9.00;;;;;-143.47;100.00;63865.75;2108629;28;8849;-67
2023/07/07 04:22:20;;;;;;;;;7.40;7.40;;;;;-143.47;100.00;63865.75;2119131;28;8772;-67
2023/07/07 04:23:20;;;;;;;;;6.33;5.33;;;;;-143.47;100.00;63865.75;2119045;28;8810;-67
2023/07/07 04:24:21;;;;;;;;;9.25;9.25;;;;;-143.47;100.00;63865.75;2119021;28;8783;-67
2023/07/07 04:25:21;;;;;;;;;6.50;6.50;;;;;-143.47;100.00;63865.75;2119326;28;8721;-67
2023/07/07 04:26:24;;;;;;;;;8.50;6.50;;;;;-143.47;100.00;63865.75;2109879;28;8742;-66
2023/07/07 04:27:24;;;;;;;;;8.80;8.60;;;;;-143.47;100.00;63865.75;2106166;28;8741;-67
2023/07/07 04:28:25;;;;;;;;;6.00;6.00;;;;;-143.47;100.00;63865.75;2110805;28;9176;-67
2023/07/07 04:29:25;;;;;;;;;7.75;7.50;;;;;-143.47;100.00;63865.75;2109065;28;8813;-66
2023/07/07 04:30:25;;;;;;;;;5.25;5.25;;;;;-143.47;100.00;63865.75;2101675;28;11351;-67
2023/07/07 04:31:27;;;;;;;;;6.00;6.00;;;;;-143.47;100.00;63865.75;2101931;28;8722;-66
2023/07/07 04:32:28;;;;;;;;;7.60;6.20;;;;;-143.47;100.00;63865.75;2103700;28;8738;-67
2023/07/07 04:33:29;;;;;;;;;7.50;7.50;;;;;-143.47;100.00;63865.75;2109429;28;8721;-65
2023/07/07 04:34:30;;;;;;;;;7.40;7.00;;;;;-143.47;100.00;63865.75;2110922;28;8669;-66
2023/07/07 04:35:34;;;;;;;;;8.00;5.00;;;;;-143.47;100.00;63865.75;2113948;28;8883;-67
2023/07/07 04:36:35;;;;;;;;;8.00;8.00;;;;;-143.47;100.00;63865.75;2119077;28;8658;-66
2023/07/07 04:37:35;;;;;;;;;6.00;5.75;;;;;-143.47;100.00;63865.75;2118916;28;8797;-66
2023/07/07 04:38:36;;;;;;;;;8.50;7.50;;;;;-143.47;100.00;63865.75;2118852;28;8814;-65
2023/07/07 04:39:36;;;;;;;;;6.50;6.25;;;;;-143.47;100.00;63865.75;2119353;28;8701;-66
2023/07/07 04:40:37;;;;;;;;;7.00;7.00;;;;;-143.47;100.00;63865.75;2119071;28;8850;-66
2023/07/07 04:41:37;;;;;;;;;8.00;8.00;;;;;-143.47;100.00;63865.75;2115964;28;9058;-67
2023/07/07 04:42:37;;;;;;;;;6.00;6.00;;;;;-143.47;100.00;63865.75;2110620;28;8768;-65
2023/07/07 04:43:40;;;;;;;;;6.00;6.00;;;;;-143.47;100.00;63865.75;2110591;28;8782;-67
2023/07/07 04:44:41;;;;;;;;;3.80;3.80;;;;;-143.47;100.00;63865.75;2109959;28;8723;-66
2023/07/07 04:45:44;;;;;;;;;9.75;7.25;;;;;-143.47;100.00;63865.75;2110233;28;8822;-68
2023/07/07 04:46:44;;;;;;;;;6.20;6.20;;;;;-143.47;100.00;63865.75;2112295;28;8739;-66
2023/07/07 04:47:44;;;;;;;;;5.50;5.50;;;;;-143.47;100.00;63865.75;2113102;28;9216;-66